sensor_id;sensor_type;location;lat;lon;timestamp;temperature;humidity
18805;DHT22;9530;48.930;9.526;2022-10-22T00:01:15;13.60;99.90
18805;DHT22;9530;48.930;9.526;2022-10-22T00:03:42;13.50;99.90
18805;DHT22;9530;48.930;9.526;2022-10-22T00:06:09;13.50;99.90
18805;DHT22;9530;48.930;9.526;2022-10-22T00:08:35;13.50;99.90
18805;DHT22;9530;48.930;9.526;2022-10-22T00:11:09;13.50;99.90
18805;DHT22;9530;48.930;9.526;2022-10-22T00:13:36;13.50;99.90
18805;DHT22;9530;48.930;9.526;2022-10-22T00:16:02;13.40;99.90
18805;DHT22;9530;48.930;9.526;2022-10-22T00:18:29;13.40;99.90
18805;DHT22;9530;48.930;9.526;2022-10-22T00:20:56;13.40;99.90
18805;DHT22;9530;48.930;9.526;2022-10-22T00:23:23;13.40;99.90
18805;DHT22;9530;48.930;9.526;2022-10-22T00:25:49;13.30;99.90
18805;DHT22;9530;48.930;9.526;2022-10-22T00:28:19;13.30;99.90
18805;DHT22;9530;48.930;9.526;2022-10-22T00:30:46;13.30;99.90
18805;DHT22;9530;48.930;9.526;2022-10-22T00:33:13;13.30;99.90
18805;DHT22;9530;48.930;9.526;2022-10-22T00:35:39;13.20;99.90
18805;DHT22;9530;48.930;9.526;2022-10-22T00:38:06;13.20;99.90
18805;DHT22;9530;48.930;9.526;2022-10-22T00:40:33;13.20;99.90
18805;DHT22;9530;48.930;9.526;2022-10-22T00:43:00;13.20;99.90
18805;DHT22;9530;48.930;9.526;2022-10-22T00:45:28;13.20;99.90
18805;DHT22;9530;48.930;9.526;2022-10-22T00:47:58;13.20;99.90
18805;DHT22;9530;48.930;9.526;2022-10-22T00:50:28;13.20;99.90
18805;DHT22;9530;48.930;9.526;2022-10-22T00:52:56;13.20;99.90
18805;DHT22;9530;48.930;9.526;2022-10-22T00:55:24;13.20;99.90
18805;DHT22;9530;48.930;9.526;2022-10-22T00:57:53;13.20;99.90
18805;DHT22;9530;48.930;9.526;2022-10-22T01:00:21;13.30;99.90
18805;DHT22;9530;48.930;9.526;2022-10-22T01:02:50;13.30;99.90
18805;DHT22;9530;48.930;9.526;2022-10-22T01:05:17;13.30;99.90
18805;DHT22;9530;48.930;9.526;2022-10-22T01:07:46;13.30;99.90
18805;DHT22;9530;48.930;9.526;2022-10-22T01:10:26;13.40;99.90
18805;DHT22;9530;48.930;9.526;2022-10-22T01:13:08;13.40;99.90
18805;DHT22;9530;48.930;9.526;2022-10-22T01:15:44;13.30;99.90
18805;DHT22;9530;48.930;9.526;2022-10-22T01:18:19;13.40;99.90
18805;DHT22;9530;48.930;9.526;2022-10-22T01:20:59;13.30;99.90
18805;DHT22;9530;48.930;9.526;2022-10-22T01:23:43;13.30;99.90
18805;DHT22;9530;48.930;9.526;2022-10-22T01:26:20;13.30;99.90
18805;DHT22;9530;48.930;9.526;2022-10-22T01:28:57;13.20;99.90
18805;DHT22;9530;48.930;9.526;2022-10-22T01:31:30;13.20;99.90
18805;DHT22;9530;48.930;9.526;2022-10-22T01:33:58;13.20;99.90
18805;DHT22;9530;48.930;9.526;2022-10-22T01:36:27;13.20;99.90
18805;DHT22;9530;48.930;9.526;2022-10-22T01:38:55;13.10;99.90
18805;DHT22;9530;48.930;9.526;2022-10-22T01:41:22;13.10;99.90
18805;DHT22;9530;48.930;9.526;2022-10-22T01:43:48;13.10;99.90
18805;DHT22;9530;48.930;9.526;2022-10-22T01:46:17;13.10;99.90
18805;DHT22;9530;48.930;9.526;2022-10-22T01:48:55;13.10;99.90
18805;DHT22;9530;48.930;9.526;2022-10-22T01:51:37;13.10;99.90
18805;DHT22;9530;48.930;9.526;2022-10-22T01:54:14;13.10;99.90
18805;DHT22;9530;48.930;9.526;2022-10-22T01:56:53;13.10;99.90
18805;DHT22;9530;48.930;9.526;2022-10-22T01:59:28;13.10;99.90
18805;DHT22;9530;48.930;9.526;2022-10-22T02:02:04;13.10;99.90
18805;DHT22;9530;48.930;9.526;2022-10-22T02:04:34;13.10;99.90
18805;DHT22;9530;48.930;9.526;2022-10-22T02:07:06;13.00;99.90
18805;DHT22;9530;48.930;9.526;2022-10-22T02:09:34;13.00;99.90
18805;DHT22;9530;48.930;9.526;2022-10-22T02:12:03;13.10;99.90
18805;DHT22;9530;48.930;9.526;2022-10-22T02:14:33;13.10;99.90
18805;DHT22;9530;48.930;9.526;2022-10-22T02:17:05;13.10;99.90
18805;DHT22;9530;48.930;9.526;2022-10-22T02:19:38;13.20;99.90
18805;DHT22;9530;48.930;9.526;2022-10-22T02:22:07;13.20;99.90
18805;DHT22;9530;48.930;9.526;2022-10-22T02:24:34;13.20;99.90
18805;DHT22;9530;48.930;9.526;2022-10-22T02:27:06;13.20;99.90
18805;DHT22;9530;48.930;9.526;2022-10-22T02:29:37;13.30;99.90
18805;DHT22;9530;48.930;9.526;2022-10-22T02:32:08;13.20;99.90
18805;DHT22;9530;48.930;9.526;2022-10-22T02:34:37;13.10;99.90
18805;DHT22;9530;48.930;9.526;2022-10-22T02:37:04;13.10;99.90
18805;DHT22;9530;48.930;9.526;2022-10-22T02:39:32;13.10;99.90
18805;DHT22;9530;48.930;9.526;2022-10-22T02:42:00;13.00;99.90
18805;DHT22;9530;48.930;9.526;2022-10-22T02:44:27;12.90;99.90
18805;DHT22;9530;48.930;9.526;2022-10-22T02:46:54;12.80;99.90
18805;DHT22;9530;48.930;9.526;2022-10-22T02:49:22;12.80;99.90
18805;DHT22;9530;48.930;9.526;2022-10-22T02:51:49;12.70;99.90
18805;DHT22;9530;48.930;9.526;2022-10-22T02:54:15;12.60;99.90
18805;DHT22;9530;48.930;9.526;2022-10-22T02:56:42;12.60;99.90
18805;DHT22;9530;48.930;9.526;2022-10-22T02:59:09;12.50;99.90
18805;DHT22;9530;48.930;9.526;2022-10-22T03:01:35;12.40;99.90
18805;DHT22;9530;48.930;9.526;2022-10-22T03:04:02;12.40;99.90
18805;DHT22;9530;48.930;9.526;2022-10-22T03:06:30;12.40;99.90
18805;DHT22;9530;48.930;9.526;2022-10-22T03:08:57;12.40;99.90
18805;DHT22;9530;48.930;9.526;2022-10-22T03:11:24;12.40;99.90
18805;DHT22;9530;48.930;9.526;2022-10-22T03:13:51;12.40;99.90
18805;DHT22;9530;48.930;9.526;2022-10-22T03:16:17;12.40;99.90
18805;DHT22;9530;48.930;9.526;2022-10-22T03:18:44;12.40;99.90
18805;DHT22;9530;48.930;9.526;2022-10-22T03:21:17;12.40;99.90
18805;DHT22;9530;48.930;9.526;2022-10-22T03:23:48;12.40;99.90
18805;DHT22;9530;48.930;9.526;2022-10-22T03:26:14;12.40;99.90
18805;DHT22;9530;48.930;9.526;2022-10-22T03:28:41;12.50;99.90
18805;DHT22;9530;48.930;9.526;2022-10-22T03:31:08;12.40;99.90
18805;DHT22;9530;48.930;9.526;2022-10-22T03:33:35;12.50;99.90
18805;DHT22;9530;48.930;9.526;2022-10-22T03:36:02;12.50;99.90
18805;DHT22;9530;48.930;9.526;2022-10-22T03:38:29;12.60;99.90
18805;DHT22;9530;48.930;9.526;2022-10-22T03:40:57;12.50;99.90
18805;DHT22;9530;48.930;9.526;2022-10-22T03:43:24;12.50;99.90
18805;DHT22;9530;48.930;9.526;2022-10-22T03:45:51;12.50;99.90
18805;DHT22;9530;48.930;9.526;2022-10-22T03:48:17;12.50;99.90
18805;DHT22;9530;48.930;9.526;2022-10-22T03:50:44;12.60;99.90
18805;DHT22;9530;48.930;9.526;2022-10-22T03:53:11;12.70;99.90
18805;DHT22;9530;48.930;9.526;2022-10-22T03:55:39;12.70;99.90
18805;DHT22;9530;48.930;9.526;2022-10-22T03:58:08;12.70;99.90
18805;DHT22;9530;48.930;9.526;2022-10-22T04:00:35;12.70;99.90
18805;DHT22;9530;48.930;9.526;2022-10-22T04:03:02;12.70;99.90
18805;DHT22;9530;48.930;9.526;2022-10-22T04:05:31;12.70;99.90
18805;DHT22;9530;48.930;9.526;2022-10-22T04:07:57;12.70;99.90
18805;DHT22;9530;48.930;9.526;2022-10-22T04:10:24;12.70;99.90
18805;DHT22;9530;48.930;9.526;2022-10-22T04:12:51;12.70;99.90
18805;DHT22;9530;48.930;9.526;2022-10-22T04:15:19;12.70;99.90
18805;DHT22;9530;48.930;9.526;2022-10-22T04:17:46;12.70;99.90
18805;DHT22;9530;48.930;9.526;2022-10-22T04:20:12;12.70;99.90
18805;DHT22;9530;48.930;9.526;2022-10-22T04:22:39;12.70;99.90
18805;DHT22;9530;48.930;9.526;2022-10-22T04:25:06;12.70;99.90
18805;DHT22;9530;48.930;9.526;2022-10-22T04:27:33;12.80;99.90
18805;DHT22;9530;48.930;9.526;2022-10-22T04:30:01;12.80;99.90
18805;DHT22;9530;48.930;9.526;2022-10-22T04:32:29;12.80;99.90
18805;DHT22;9530;48.930;9.526;2022-10-22T04:34:55;12.80;99.90
18805;DHT22;9530;48.930;9.526;2022-10-22T04:37:22;12.80;99.90
18805;DHT22;9530;48.930;9.526;2022-10-22T04:39:49;12.80;99.90
18805;DHT22;9530;48.930;9.526;2022-10-22T04:42:15;12.80;99.90
18805;DHT22;9530;48.930;9.526;2022-10-22T04:44:42;12.70;99.90
18805;DHT22;9530;48.930;9.526;2022-10-22T04:47:09;12.70;99.90
18805;DHT22;9530;48.930;9.526;2022-10-22T04:49:37;12.70;99.90
18805;DHT22;9530;48.930;9.526;2022-10-22T04:52:04;12.60;99.90
18805;DHT22;9530;48.930;9.526;2022-10-22T04:54:30;12.50;99.90
18805;DHT22;9530;48.930;9.526;2022-10-22T04:56:57;12.50;99.90
18805;DHT22;9530;48.930;9.526;2022-10-22T04:59:24;12.40;99.90
18805;DHT22;9530;48.930;9.526;2022-10-22T05:01:50;12.30;99.90
18805;DHT22;9530;48.930;9.526;2022-10-22T05:04:17;12.30;99.90
18805;DHT22;9530;48.930;9.526;2022-10-22T05:06:46;12.20;99.90
18805;DHT22;9530;48.930;9.526;2022-10-22T05:09:14;12.20;99.90
18805;DHT22;9530;48.930;9.526;2022-10-22T05:11:43;12.20;99.90
18805;DHT22;9530;48.930;9.526;2022-10-22T05:14:13;12.10;99.90
18805;DHT22;9530;48.930;9.526;2022-10-22T05:16:40;12.10;99.90
18805;DHT22;9530;48.930;9.526;2022-10-22T05:19:07;12.10;99.90
18805;DHT22;9530;48.930;9.526;2022-10-22T05:21:37;12.10;99.90
18805;DHT22;9530;48.930;9.526;2022-10-22T05:24:06;12.00;99.90
18805;DHT22;9530;48.930;9.526;2022-10-22T05:26:32;12.00;99.90
18805;DHT22;9530;48.930;9.526;2022-10-22T05:28:59;11.90;99.90
18805;DHT22;9530;48.930;9.526;2022-10-22T05:31:26;11.90;99.90
18805;DHT22;9530;48.930;9.526;2022-10-22T05:33:54;11.80;99.90
18805;DHT22;9530;48.930;9.526;2022-10-22T05:36:21;11.80;99.90
18805;DHT22;9530;48.930;9.526;2022-10-22T05:38:48;11.80;99.90
18805;DHT22;9530;48.930;9.526;2022-10-22T05:41:18;11.70;99.90
18805;DHT22;9530;48.930;9.526;2022-10-22T05:43:45;11.60;99.90
18805;DHT22;9530;48.930;9.526;2022-10-22T05:46:14;11.50;99.90
18805;DHT22;9530;48.930;9.526;2022-10-22T05:48:41;11.50;99.90
18805;DHT22;9530;48.930;9.526;2022-10-22T05:51:10;11.40;99.90
18805;DHT22;9530;48.930;9.526;2022-10-22T05:53:38;11.30;99.90
18805;DHT22;9530;48.930;9.526;2022-10-22T05:56:07;11.30;99.90
18805;DHT22;9530;48.930;9.526;2022-10-22T05:58:35;11.30;99.90
18805;DHT22;9530;48.930;9.526;2022-10-22T06:01:03;11.20;99.90
18805;DHT22;9530;48.930;9.526;2022-10-22T06:03:30;11.20;99.90
18805;DHT22;9530;48.930;9.526;2022-10-22T06:05:59;11.10;99.90
18805;DHT22;9530;48.930;9.526;2022-10-22T06:08:27;11.10;99.90
18805;DHT22;9530;48.930;9.526;2022-10-22T06:10:54;11.00;99.90
18805;DHT22;9530;48.930;9.526;2022-10-22T06:13:21;11.00;99.90
18805;DHT22;9530;48.930;9.526;2022-10-22T06:15:49;11.00;99.90
18805;DHT22;9530;48.930;9.526;2022-10-22T06:18:18;11.10;99.90
18805;DHT22;9530;48.930;9.526;2022-10-22T06:20:45;11.10;99.90
18805;DHT22;9530;48.930;9.526;2022-10-22T06:23:12;11.10;99.90
18805;DHT22;9530;48.930;9.526;2022-10-22T06:25:39;11.10;99.90
18805;DHT22;9530;48.930;9.526;2022-10-22T06:28:05;11.20;99.90
18805;DHT22;9530;48.930;9.526;2022-10-22T06:30:32;11.20;99.90
18805;DHT22;9530;48.930;9.526;2022-10-22T06:33:00;11.20;99.90
18805;DHT22;9530;48.930;9.526;2022-10-22T06:35:27;11.30;99.90
18805;DHT22;9530;48.930;9.526;2022-10-22T06:37:53;11.40;99.90
18805;DHT22;9530;48.930;9.526;2022-10-22T06:40:20;11.50;99.90
18805;DHT22;9530;48.930;9.526;2022-10-22T06:42:47;11.50;99.90
18805;DHT22;9530;48.930;9.526;2022-10-22T06:45:14;11.60;99.90
18805;DHT22;9530;48.930;9.526;2022-10-22T06:47:41;11.60;99.90
18805;DHT22;9530;48.930;9.526;2022-10-22T06:50:09;11.70;99.90
18805;DHT22;9530;48.930;9.526;2022-10-22T06:52:36;11.80;99.90
18805;DHT22;9530;48.930;9.526;2022-10-22T06:55:03;11.90;99.90
18805;DHT22;9530;48.930;9.526;2022-10-22T06:57:29;11.90;99.90
18805;DHT22;9530;48.930;9.526;2022-10-22T06:59:56;12.00;99.90
18805;DHT22;9530;48.930;9.526;2022-10-22T07:02:23;12.10;99.90
18805;DHT22;9530;48.930;9.526;2022-10-22T07:04:50;12.20;99.90
18805;DHT22;9530;48.930;9.526;2022-10-22T07:07:18;12.20;99.90
18805;DHT22;9530;48.930;9.526;2022-10-22T07:09:44;12.30;99.90
18805;DHT22;9530;48.930;9.526;2022-10-22T07:12:13;12.40;99.90
18805;DHT22;9530;48.930;9.526;2022-10-22T07:14:40;12.50;99.90
18805;DHT22;9530;48.930;9.526;2022-10-22T07:17:07;12.60;99.90
18805;DHT22;9530;48.930;9.526;2022-10-22T07:19:34;12.70;99.90
18805;DHT22;9530;48.930;9.526;2022-10-22T07:22:01;12.90;99.90
18805;DHT22;9530;48.930;9.526;2022-10-22T07:24:29;13.00;99.90
18805;DHT22;9530;48.930;9.526;2022-10-22T07:26:56;13.10;99.90
18805;DHT22;9530;48.930;9.526;2022-10-22T07:29:22;13.20;99.90
18805;DHT22;9530;48.930;9.526;2022-10-22T07:31:49;13.20;99.90
18805;DHT22;9530;48.930;9.526;2022-10-22T07:34:16;13.40;99.90
18805;DHT22;9530;48.930;9.526;2022-10-22T07:36:42;13.40;99.90
18805;DHT22;9530;48.930;9.526;2022-10-22T07:39:09;13.50;99.90
18805;DHT22;9530;48.930;9.526;2022-10-22T07:41:37;13.60;99.90
18805;DHT22;9530;48.930;9.526;2022-10-22T07:44:04;13.60;99.90
18805;DHT22;9530;48.930;9.526;2022-10-22T07:46:31;13.60;99.90
18805;DHT22;9530;48.930;9.526;2022-10-22T07:48:59;13.70;99.90
18805;DHT22;9530;48.930;9.526;2022-10-22T07:51:26;13.70;99.90
18805;DHT22;9530;48.930;9.526;2022-10-22T07:53:53;13.70;99.90
18805;DHT22;9530;48.930;9.526;2022-10-22T07:56:19;13.90;99.90
18805;DHT22;9530;48.930;9.526;2022-10-22T07:58:47;13.90;99.90
18805;DHT22;9530;48.930;9.526;2022-10-22T08:01:14;14.00;99.90
18805;DHT22;9530;48.930;9.526;2022-10-22T08:03:41;14.10;99.90
18805;DHT22;9530;48.930;9.526;2022-10-22T08:06:08;14.10;99.90
18805;DHT22;9530;48.930;9.526;2022-10-22T08:08:35;14.20;99.90
18805;DHT22;9530;48.930;9.526;2022-10-22T08:11:02;14.30;99.90
18805;DHT22;9530;48.930;9.526;2022-10-22T08:13:29;14.40;99.90
18805;DHT22;9530;48.930;9.526;2022-10-22T08:15:58;14.50;99.90
18805;DHT22;9530;48.930;9.526;2022-10-22T08:18:25;14.50;99.90
18805;DHT22;9530;48.930;9.526;2022-10-22T08:20:52;14.50;99.90
18805;DHT22;9530;48.930;9.526;2022-10-22T08:23:19;14.60;99.90
18805;DHT22;9530;48.930;9.526;2022-10-22T08:25:46;14.60;99.90
18805;DHT22;9530;48.930;9.526;2022-10-22T08:28:13;14.60;99.90
18805;DHT22;9530;48.930;9.526;2022-10-22T08:30:39;14.60;99.90
18805;DHT22;9530;48.930;9.526;2022-10-22T08:33:08;14.60;99.90
18805;DHT22;9530;48.930;9.526;2022-10-22T08:35:35;14.60;99.90
18805;DHT22;9530;48.930;9.526;2022-10-22T08:38:01;14.90;99.90
18805;DHT22;9530;48.930;9.526;2022-10-22T08:40:31;15.00;99.90
18805;DHT22;9530;48.930;9.526;2022-10-22T08:43:32;15.20;99.90
18805;DHT22;9530;48.930;9.526;2022-10-22T08:46:12;15.40;99.90
18805;DHT22;9530;48.930;9.526;2022-10-22T08:48:45;15.30;99.90
18805;DHT22;9530;48.930;9.526;2022-10-22T08:51:16;15.40;99.90
18805;DHT22;9530;48.930;9.526;2022-10-22T08:53:52;15.40;99.90
18805;DHT22;9530;48.930;9.526;2022-10-22T08:56:24;15.50;99.90
18805;DHT22;9530;48.930;9.526;2022-10-22T08:58:55;15.50;99.90
18805;DHT22;9530;48.930;9.526;2022-10-22T09:01:32;15.50;99.90
18805;DHT22;9530;48.930;9.526;2022-10-22T09:04:06;15.50;99.90
18805;DHT22;9530;48.930;9.526;2022-10-22T09:06:36;15.70;99.90
18805;DHT22;9530;48.930;9.526;2022-10-22T09:09:10;15.70;99.90
18805;DHT22;9530;48.930;9.526;2022-10-22T09:11:39;15.70;99.90
18805;DHT22;9530;48.930;9.526;2022-10-22T09:14:11;15.70;99.90
18805;DHT22;9530;48.930;9.526;2022-10-22T09:19:32;15.90;99.90
18805;DHT22;9530;48.930;9.526;2022-10-22T09:22:05;15.90;99.90
18805;DHT22;9530;48.930;9.526;2022-10-22T09:24:37;15.90;99.90
18805;DHT22;9530;48.930;9.526;2022-10-22T09:27:10;16.00;99.90
18805;DHT22;9530;48.930;9.526;2022-10-22T09:29:37;16.20;99.90
18805;DHT22;9530;48.930;9.526;2022-10-22T09:32:04;16.40;99.90
18805;DHT22;9530;48.930;9.526;2022-10-22T09:34:32;16.50;99.90
18805;DHT22;9530;48.930;9.526;2022-10-22T09:37:00;16.70;99.90
18805;DHT22;9530;48.930;9.526;2022-10-22T09:39:32;16.80;99.90
18805;DHT22;9530;48.930;9.526;2022-10-22T09:41:58;17.00;99.90
18805;DHT22;9530;48.930;9.526;2022-10-22T09:44:25;17.10;99.90
18805;DHT22;9530;48.930;9.526;2022-10-22T09:46:52;17.00;99.90
18805;DHT22;9530;48.930;9.526;2022-10-22T09:49:21;17.20;99.90
18805;DHT22;9530;48.930;9.526;2022-10-22T09:51:52;17.20;99.90
18805;DHT22;9530;48.930;9.526;2022-10-22T09:54:20;17.30;99.90
18805;DHT22;9530;48.930;9.526;2022-10-22T09:56:56;17.40;99.90
18805;DHT22;9530;48.930;9.526;2022-10-22T09:59:28;17.50;99.90
18805;DHT22;9530;48.930;9.526;2022-10-22T10:02:02;17.60;99.90
18805;DHT22;9530;48.930;9.526;2022-10-22T10:04:33;17.70;99.90
18805;DHT22;9530;48.930;9.526;2022-10-22T10:07:01;17.70;99.90
18805;DHT22;9530;48.930;9.526;2022-10-22T10:09:30;17.70;99.90
18805;DHT22;9530;48.930;9.526;2022-10-22T10:12:10;17.80;99.90
18805;DHT22;9530;48.930;9.526;2022-10-22T10:14:45;17.80;99.90
18805;DHT22;9530;48.930;9.526;2022-10-22T10:17:21;17.80;99.90
18805;DHT22;9530;48.930;9.526;2022-10-22T10:19:59;17.80;99.90
18805;DHT22;9530;48.930;9.526;2022-10-22T10:22:43;18.00;99.90
18805;DHT22;9530;48.930;9.526;2022-10-22T10:25:28;18.00;99.90
18805;DHT22;9530;48.930;9.526;2022-10-22T10:28:03;18.10;99.90
18805;DHT22;9530;48.930;9.526;2022-10-22T10:30:39;18.00;99.90
18805;DHT22;9530;48.930;9.526;2022-10-22T10:33:17;17.80;99.90
18805;DHT22;9530;48.930;9.526;2022-10-22T10:35:54;17.90;99.90
18805;DHT22;9530;48.930;9.526;2022-10-22T10:38:37;18.00;99.90
18805;DHT22;9530;48.930;9.526;2022-10-22T10:41:16;18.00;99.90
18805;DHT22;9530;48.930;9.526;2022-10-22T10:43:54;18.00;99.90
18805;DHT22;9530;48.930;9.526;2022-10-22T10:46:30;18.00;99.90
18805;DHT22;9530;48.930;9.526;2022-10-22T10:49:00;18.00;99.90
18805;DHT22;9530;48.930;9.526;2022-10-22T10:51:37;17.80;99.90
18805;DHT22;9530;48.930;9.526;2022-10-22T10:54:17;18.00;99.90
18805;DHT22;9530;48.930;9.526;2022-10-22T10:56:49;18.00;99.90
18805;DHT22;9530;48.930;9.526;2022-10-22T10:59:27;18.10;99.90
18805;DHT22;9530;48.930;9.526;2022-10-22T11:02:43;18.20;99.90
18805;DHT22;9530;48.930;9.526;2022-10-22T11:05:24;18.30;99.90
18805;DHT22;9530;48.930;9.526;2022-10-22T11:07:57;18.60;99.90
18805;DHT22;9530;48.930;9.526;2022-10-22T11:10:29;18.70;99.90
18805;DHT22;9530;48.930;9.526;2022-10-22T11:13:02;19.00;99.90
18805;DHT22;9530;48.930;9.526;2022-10-22T11:15:32;19.00;99.90
18805;DHT22;9530;48.930;9.526;2022-10-22T11:18:04;19.10;99.90
18805;DHT22;9530;48.930;9.526;2022-10-22T11:20:40;19.10;99.90
18805;DHT22;9530;48.930;9.526;2022-10-22T11:23:13;19.00;99.90
18805;DHT22;9530;48.930;9.526;2022-10-22T11:25:45;18.80;99.90
18805;DHT22;9530;48.930;9.526;2022-10-22T11:28:17;18.70;99.90
18805;DHT22;9530;48.930;9.526;2022-10-22T11:30:51;18.50;99.90
18805;DHT22;9530;48.930;9.526;2022-10-22T11:33:21;18.30;99.90
18805;DHT22;9530;48.930;9.526;2022-10-22T11:35:50;18.10;99.90
18805;DHT22;9530;48.930;9.526;2022-10-22T11:38:23;18.00;99.90
18805;DHT22;9530;48.930;9.526;2022-10-22T11:40:56;17.80;99.90
18805;DHT22;9530;48.930;9.526;2022-10-22T11:43:30;17.80;99.90
18805;DHT22;9530;48.930;9.526;2022-10-22T11:46:01;18.00;99.90
18805;DHT22;9530;48.930;9.526;2022-10-22T11:48:35;18.10;99.90
18805;DHT22;9530;48.930;9.526;2022-10-22T11:51:02;18.30;99.90
18805;DHT22;9530;48.930;9.526;2022-10-22T11:53:31;18.40;99.90
18805;DHT22;9530;48.930;9.526;2022-10-22T11:56:03;18.40;99.90
18805;DHT22;9530;48.930;9.526;2022-10-22T11:58:46;18.60;99.90
18805;DHT22;9530;48.930;9.526;2022-10-22T12:01:22;18.80;99.90
18805;DHT22;9530;48.930;9.526;2022-10-22T12:03:50;18.90;99.90
18805;DHT22;9530;48.930;9.526;2022-10-22T12:06:20;19.00;99.90
18805;DHT22;9530;48.930;9.526;2022-10-22T12:08:57;19.00;99.90
18805;DHT22;9530;48.930;9.526;2022-10-22T12:11:28;18.90;99.90
18805;DHT22;9530;48.930;9.526;2022-10-22T12:14:21;18.80;99.90
18805;DHT22;9530;48.930;9.526;2022-10-22T12:16:52;18.90;99.90
18805;DHT22;9530;48.930;9.526;2022-10-22T12:19:27;18.90;99.90
18805;DHT22;9530;48.930;9.526;2022-10-22T12:21:57;19.00;99.90
18805;DHT22;9530;48.930;9.526;2022-10-22T12:24:24;19.10;99.90
18805;DHT22;9530;48.930;9.526;2022-10-22T12:26:56;19.20;99.90
18805;DHT22;9530;48.930;9.526;2022-10-22T12:29:22;19.30;99.90
18805;DHT22;9530;48.930;9.526;2022-10-22T12:31:51;19.60;99.90
18805;DHT22;9530;48.930;9.526;2022-10-22T12:34:21;19.60;99.90
18805;DHT22;9530;48.930;9.526;2022-10-22T12:36:50;19.70;99.90
18805;DHT22;9530;48.930;9.526;2022-10-22T12:39:19;19.80;99.90
18805;DHT22;9530;48.930;9.526;2022-10-22T12:41:46;20.00;99.90
18805;DHT22;9530;48.930;9.526;2022-10-22T12:44:15;20.10;99.90
18805;DHT22;9530;48.930;9.526;2022-10-22T12:46:43;20.10;99.90
18805;DHT22;9530;48.930;9.526;2022-10-22T12:49:16;20.10;99.90
18805;DHT22;9530;48.930;9.526;2022-10-22T12:51:44;20.10;99.90
18805;DHT22;9530;48.930;9.526;2022-10-22T12:54:22;20.00;99.90
18805;DHT22;9530;48.930;9.526;2022-10-22T12:56:50;19.80;99.90
18805;DHT22;9530;48.930;9.526;2022-10-22T12:59:22;19.90;99.90
18805;DHT22;9530;48.930;9.526;2022-10-22T13:01:50;19.80;99.90
18805;DHT22;9530;48.930;9.526;2022-10-22T13:04:20;19.80;99.90
18805;DHT22;9530;48.930;9.526;2022-10-22T13:06:49;19.80;99.90
18805;DHT22;9530;48.930;9.526;2022-10-22T13:09:19;19.70;99.90
18805;DHT22;9530;48.930;9.526;2022-10-22T13:11:51;19.70;99.90
18805;DHT22;9530;48.930;9.526;2022-10-22T13:14:26;19.70;99.90
18805;DHT22;9530;48.930;9.526;2022-10-22T13:17:11;19.60;99.90
18805;DHT22;9530;48.930;9.526;2022-10-22T13:19:41;19.70;99.90
18805;DHT22;9530;48.930;9.526;2022-10-22T13:22:29;19.60;99.90
18805;DHT22;9530;48.930;9.526;2022-10-22T13:24:58;19.50;99.90
18805;DHT22;9530;48.930;9.526;2022-10-22T13:27:30;19.60;99.90
18805;DHT22;9530;48.930;9.526;2022-10-22T13:30:01;19.50;99.90
18805;DHT22;9530;48.930;9.526;2022-10-22T13:32:34;19.60;99.90
18805;DHT22;9530;48.930;9.526;2022-10-22T13:35:02;19.50;99.90
18805;DHT22;9530;48.930;9.526;2022-10-22T13:37:30;19.50;99.90
18805;DHT22;9530;48.930;9.526;2022-10-22T13:39:58;19.50;99.90
18805;DHT22;9530;48.930;9.526;2022-10-22T13:42:25;19.30;99.90
18805;DHT22;9530;48.930;9.526;2022-10-22T13:44:51;19.40;99.90
18805;DHT22;9530;48.930;9.526;2022-10-22T13:47:27;19.30;99.90
18805;DHT22;9530;48.930;9.526;2022-10-22T13:49:57;19.30;99.90
18805;DHT22;9530;48.930;9.526;2022-10-22T13:52:29;19.30;99.90
18805;DHT22;9530;48.930;9.526;2022-10-22T13:54:57;19.40;99.90
18805;DHT22;9530;48.930;9.526;2022-10-22T13:57:24;19.50;99.90
18805;DHT22;9530;48.930;9.526;2022-10-22T13:59:51;19.50;99.90
18805;DHT22;9530;48.930;9.526;2022-10-22T14:02:18;19.60;99.90
18805;DHT22;9530;48.930;9.526;2022-10-22T14:04:48;19.60;99.90
18805;DHT22;9530;48.930;9.526;2022-10-22T14:07:15;19.60;99.90
18805;DHT22;9530;48.930;9.526;2022-10-22T14:09:43;19.50;99.90
18805;DHT22;9530;48.930;9.526;2022-10-22T14:12:11;19.50;99.90
18805;DHT22;9530;48.930;9.526;2022-10-22T14:14:38;19.50;99.90
18805;DHT22;9530;48.930;9.526;2022-10-22T14:17:10;19.50;99.90
18805;DHT22;9530;48.930;9.526;2022-10-22T14:19:40;19.60;99.90
18805;DHT22;9530;48.930;9.526;2022-10-22T14:22:12;19.50;99.90
18805;DHT22;9530;48.930;9.526;2022-10-22T14:24:38;19.60;99.90
18805;DHT22;9530;48.930;9.526;2022-10-22T14:27:05;19.50;99.90
18805;DHT22;9530;48.930;9.526;2022-10-22T14:29:32;19.60;99.90
18805;DHT22;9530;48.930;9.526;2022-10-22T14:31:58;19.50;99.90
18805;DHT22;9530;48.930;9.526;2022-10-22T14:34:25;19.40;99.90
18805;DHT22;9530;48.930;9.526;2022-10-22T14:36:52;19.40;99.90
18805;DHT22;9530;48.930;9.526;2022-10-22T14:39:20;19.30;99.90
18805;DHT22;9530;48.930;9.526;2022-10-22T14:41:47;19.30;99.90
18805;DHT22;9530;48.930;9.526;2022-10-22T14:44:13;19.30;99.90
18805;DHT22;9530;48.930;9.526;2022-10-22T14:46:40;19.30;99.90
18805;DHT22;9530;48.930;9.526;2022-10-22T14:49:08;19.20;99.90
18805;DHT22;9530;48.930;9.526;2022-10-22T14:51:35;19.20;99.90
18805;DHT22;9530;48.930;9.526;2022-10-22T14:54:02;19.10;99.90
18805;DHT22;9530;48.930;9.526;2022-10-22T14:56:30;19.10;99.90
18805;DHT22;9530;48.930;9.526;2022-10-22T14:58:56;19.10;99.90
18805;DHT22;9530;48.930;9.526;2022-10-22T15:01:23;19.00;99.90
18805;DHT22;9530;48.930;9.526;2022-10-22T15:03:50;19.00;99.90
18805;DHT22;9530;48.930;9.526;2022-10-22T15:06:17;18.90;99.90
18805;DHT22;9530;48.930;9.526;2022-10-22T15:08:43;18.80;99.90
18805;DHT22;9530;48.930;9.526;2022-10-22T15:11:11;18.80;99.90
18805;DHT22;9530;48.930;9.526;2022-10-22T15:13:39;18.80;99.90
18805;DHT22;9530;48.930;9.526;2022-10-22T15:16:07;18.70;99.90
18805;DHT22;9530;48.930;9.526;2022-10-22T15:18:35;18.60;99.90
18805;DHT22;9530;48.930;9.526;2022-10-22T15:21:05;18.50;99.90
18805;DHT22;9530;48.930;9.526;2022-10-22T15:23:31;18.40;99.90
18805;DHT22;9530;48.930;9.526;2022-10-22T15:25:58;18.30;99.90
18805;DHT22;9530;48.930;9.526;2022-10-22T15:28:25;18.20;99.90
18805;DHT22;9530;48.930;9.526;2022-10-22T15:30:55;18.00;99.90
18805;DHT22;9530;48.930;9.526;2022-10-22T15:33:22;17.90;99.90
18805;DHT22;9530;48.930;9.526;2022-10-22T15:35:49;17.80;99.90
18805;DHT22;9530;48.930;9.526;2022-10-22T15:38:16;17.70;99.90
18805;DHT22;9530;48.930;9.526;2022-10-22T15:40:43;17.50;99.90
18805;DHT22;9530;48.930;9.526;2022-10-22T15:43:10;17.40;99.90
18805;DHT22;9530;48.930;9.526;2022-10-22T15:45:37;17.30;99.90
18805;DHT22;9530;48.930;9.526;2022-10-22T15:48:05;17.10;99.90
18805;DHT22;9530;48.930;9.526;2022-10-22T15:50:36;17.00;99.90
18805;DHT22;9530;48.930;9.526;2022-10-22T15:53:03;16.80;99.90
18805;DHT22;9530;48.930;9.526;2022-10-22T15:55:29;16.80;99.90
18805;DHT22;9530;48.930;9.526;2022-10-22T15:57:56;16.50;99.90
18805;DHT22;9530;48.930;9.526;2022-10-22T16:00:23;16.30;99.90
18805;DHT22;9530;48.930;9.526;2022-10-22T16:02:49;16.20;99.90